Time;durP1;ratioP1;P1;durP2;ratioP2;P2;SDS_P1;SDS_P2;PMS_P1;PMS_P2;Temp;Humidity;BMP_temperature;BMP_pressure;BME280_temperature;BME280_humidity;BME280_pressure;Samples;Min_cycle;Max_cycle;Signal;HPM_P1;HPM_P2
2022/06/26 00:02:09;;;;;;;19.48;4.20;;;;;;;;;;5027586;28;20029;-61
2022/06/26 00:04:36;;;;;;;30.05;4.57;;;;;;;;;;5023927;28;20033;-61
2022/06/26 00:07:04;;;;;;;28.95;4.75;;;;;;;;;;5024275;28;20102;-62
2022/06/26 00:09:31;;;;;;;28.90;4.78;;;;;;;;;;5018907;28;20091;-62
2022/06/26 00:11:58;;;;;;;24.63;4.80;;;;;;;;;;5027114;28;20152;-61
2022/06/26 00:14:27;;;;;;;19.20;4.40;;;;;;;;;;5028415;28;20037;-61
2022/06/26 00:16:54;;;;;;;23.10;4.40;;;;;;;;;;5027892;28;20033;-61
2022/06/26 00:19:21;;;;;;;21.48;4.35;;;;;;;;;;5028096;28;20095;-61
2022/06/26 00:21:48;;;;;;;23.85;4.95;;;;;;;;;;5028042;28;20025;-61
2022/06/26 00:24:15;;;;;;;16.92;3.83;;;;;;;;;;5027452;28;20037;-61
2022/06/26 00:26:42;;;;;;;25.27;3.92;;;;;;;;;;5020443;28;20025;-61
2022/06/26 00:29:09;;;;;;;19.25;4.07;;;;;;;;;;5026448;28;20033;-61
2022/06/26 00:31:36;;;;;;;17.45;4.18;;;;;;;;;;5027128;28;20057;-61
2022/06/26 00:34:03;;;;;;;26.67;4.20;;;;;;;;;;5027236;28;20037;-62
2022/06/26 00:36:30;;;;;;;35.33;5.00;;;;;;;;;;5026709;28;20029;-61
2022/06/26 00:38:57;;;;;;;24.00;4.43;;;;;;;;;;5024838;28;20402;-61
2022/06/26 00:41:24;;;;;;;24.85;4.75;;;;;;;;;;5026979;28;20101;-62
2022/06/26 00:43:51;;;;;;;24.17;4.57;;;;;;;;;;5007666;28;20041;-61
2022/06/26 00:46:18;;;;;;;28.30;4.65;;;;;;;;;;5026142;28;20032;-62
2022/06/26 00:48:48;;;;;;;33.20;4.60;;;;;;;;;;5027016;28;20029;-61
2022/06/26 00:51:15;;;;;;;41.75;5.97;;;;;;;;;;5026485;28;20372;-63
2022/06/26 00:53:42;;;;;;;45.53;7.40;;;;;;;;;;5027580;28;20438;-59
2022/06/26 00:56:10;;;;;;;34.92;5.97;;;;;;;;;;5026651;28;20415;-59
2022/06/26 00:58:37;;;;;;;49.78;7.45;;;;;;;;;;5024420;28;20022;-59
2022/06/26 01:01:04;;;;;;;34.45;6.95;;;;;;;;;;5026727;28;20014;-60
2022/06/26 01:03:31;;;;;;;36.47;6.80;;;;;;;;;;5026299;28;20057;-61
2022/06/26 01:05:57;;;;;;;33.75;7.65;;;;;;;;;;5027273;28;20491;-59
2022/06/26 01:08:24;;;;;;;40.60;7.88;;;;;;;;;;5027653;28;20043;-59
2022/06/26 01:10:51;;;;;;;39.53;7.65;;;;;;;;;;5025844;28;20518;-60
2022/06/26 01:13:18;;;;;;;31.58;6.68;;;;;;;;;;5026533;28;20097;-60
2022/06/26 01:15:46;;;;;;;39.50;8.13;;;;;;;;;;5027814;28;20120;-59
2022/06/26 01:18:13;;;;;;;36.05;7.60;;;;;;;;;;5031153;28;20033;-60
2022/06/26 01:20:40;;;;;;;36.72;7.05;;;;;;;;;;5027425;28;20030;-60
2022/06/26 01:23:08;;;;;;;34.47;6.07;;;;;;;;;;5031477;28;20037;-61
2022/06/26 01:25:42;;;;;;;33.15;6.43;;;;;;;;;;5012069;28;20792;-62
2022/06/26 01:28:10;;;;;;;27.65;6.97;;;;;;;;;;5023121;28;20444;-60
2022/06/26 01:30:38;;;;;;;24.23;6.70;;;;;;;;;;5013616;28;20033;-61
2022/06/26 01:33:05;;;;;;;30.48;7.35;;;;;;;;;;5031888;28;20513;-61
2022/06/26 01:35:32;;;;;;;26.30;7.40;;;;;;;;;;5032331;28;20037;-60
2022/06/26 01:38:12;;;;;;;41.78;9.70;;;;;;;;;;5032109;28;20398;-60
2022/06/26 01:40:39;;;;;;;43.67;10.32;;;;;;;;;;5032047;28;20108;-60
2022/06/26 01:43:08;;;;;;;49.08;13.23;;;;;;;;;;5032277;28;20028;-60
2022/06/26 01:45:35;;;;;;;59.33;15.93;;;;;;;;;;5032592;28;20033;-60
2022/06/26 01:48:02;;;;;;;68.90;18.95;;;;;;;;;;5032077;28;20030;-60
2022/06/26 01:50:29;;;;;;;79.15;21.48;;;;;;;;;;5028708;28;20026;-60
2022/06/26 01:52:56;;;;;;;84.68;21.65;;;;;;;;;;5023542;28;20109;-60
2022/06/26 01:55:23;;;;;;;82.40;21.35;;;;;;;;;;5032278;28;20040;-60
2022/06/26 01:57:50;;;;;;;80.45;21.45;;;;;;;;;;5032890;28;20483;-60
2022/06/26 02:00:17;;;;;;;72.30;19.95;;;;;;;;;;5032307;28;20383;-60
2022/06/26 02:02:45;;;;;;;75.80;21.33;;;;;;;;;;5032874;28;20026;-59
2022/06/26 02:05:12;;;;;;;75.03;20.73;;;;;;;;;;5032665;28;20503;-60
2022/06/26 02:07:39;;;;;;;71.35;19.33;;;;;;;;;;5032423;28;20438;-60
2022/06/26 02:15:36;;;;;;;61.22;18.27;;;;;;;;;;5020513;28;20045;-59
2022/06/26 02:18:03;;;;;;;58.60;17.58;;;;;;;;;;5020402;28;20131;-60
2022/06/26 02:20:30;;;;;;;65.35;17.92;;;;;;;;;;5022326;28;20125;-59
2022/06/26 02:22:57;;;;;;;58.28;17.13;;;;;;;;;;5020859;28;20400;-63
2022/06/26 02:25:25;;;;;;;54.83;16.60;;;;;;;;;;5019477;28;20037;-59
2022/06/26 02:27:51;;;;;;;58.20;16.90;;;;;;;;;;5020268;28;20534;-60
2022/06/26 02:30:18;;;;;;;54.00;15.80;;;;;;;;;;5021218;28;20044;-60
2022/06/26 02:32:45;;;;;;;44.33;14.70;;;;;;;;;;5022393;28;20021;-61
2022/06/26 02:35:12;;;;;;;49.75;14.60;;;;;;;;;;5020239;28;20065;-60
2022/06/26 02:37:39;;;;;;;47.50;14.43;;;;;;;;;;5021215;28;20858;-60
2022/06/26 02:40:07;;;;;;;49.47;15.35;;;;;;;;;;5023939;28;20044;-60
2022/06/26 02:42:34;;;;;;;44.03;14.27;;;;;;;;;;5022365;28;20568;-60
2022/06/26 02:45:01;;;;;;;41.72;13.30;;;;;;;;;;5021800;28;20607;-60
2022/06/26 02:47:28;;;;;;;38.63;12.35;;;;;;;;;;5022581;28;20022;-60
2022/06/26 02:49:55;;;;;;;38.03;12.35;;;;;;;;;;5024474;28;20091;-60
2022/06/26 02:52:22;;;;;;;39.05;13.05;;;;;;;;;;5020775;28;20022;-60
2022/06/26 02:54:49;;;;;;;47.55;13.23;;;;;;;;;;5023141;28;20072;-61
2022/06/26 02:57:16;;;;;;;38.97;11.68;;;;;;;;;;5010737;28;20169;-60
2022/06/26 02:59:43;;;;;;;41.28;12.45;;;;;;;;;;5013642;28;20112;-62
2022/06/26 03:02:10;;;;;;;42.92;12.20;;;;;;;;;;5013649;28;20087;-60
2022/06/26 03:04:37;;;;;;;38.13;12.63;;;;;;;;;;5013614;28;20025;-60
2022/06/26 03:07:04;;;;;;;36.75;11.07;;;;;;;;;;5014239;28;20032;-59
2022/06/26 03:09:31;;;;;;;32.95;10.15;;;;;;;;;;5026745;28;20044;-60
2022/06/26 03:11:58;;;;;;;31.77;10.75;;;;;;;;;;5030854;28;20073;-60
2022/06/26 03:14:25;;;;;;;41.53;11.65;;;;;;;;;;5032395;28;20033;-60
2022/06/26 03:16:52;;;;;;;36.08;10.93;;;;;;;;;;5031907;28;20032;-60
2022/06/26 03:19:19;;;;;;;32.47;11.05;;;;;;;;;;5032083;28;20021;-60
2022/06/26 03:21:46;;;;;;;31.50;10.65;;;;;;;;;;5032152;28;20083;-59
2022/06/26 03:24:13;;;;;;;28.50;10.10;;;;;;;;;;5032306;28;20364;-60
2022/06/26 03:26:40;;;;;;;26.67;9.80;;;;;;;;;;5031502;28;20021;-60
2022/06/26 03:29:08;;;;;;;29.73;9.80;;;;;;;;;;5032196;28;20087;-60
2022/06/26 03:31:35;;;;;;;33.17;9.63;;;;;;;;;;5031911;28;20396;-60
2022/06/26 03:34:02;;;;;;;25.35;8.75;;;;;;;;;;5031415;28;20028;-60
2022/06/26 03:36:29;;;;;;;24.80;8.13;;;;;;;;;;5032248;28;20453;-60
2022/06/26 03:38:56;;;;;;;22.80;7.75;;;;;;;;;;5031379;28;20404;-60
2022/06/26 03:41:23;;;;;;;25.70;8.23;;;;;;;;;;5014663;28;20543;-60
2022/06/26 03:43:50;;;;;;;23.85;8.07;;;;;;;;;;5031807;28;20391;-60
2022/06/26 03:46:17;;;;;;;23.67;8.13;;;;;;;;;;5030261;28;20029;-60
2022/06/26 03:48:44;;;;;;;20.48;7.32;;;;;;;;;;5031304;28;20086;-60
2022/06/26 03:51:11;;;;;;;20.95;7.65;;;;;;;;;;5031504;28;20040;-60
2022/06/26 03:53:38;;;;;;;20.35;7.45;;;;;;;;;;5032128;28;20061;-60
2022/06/26 03:56:05;;;;;;;21.92;7.47;;;;;;;;;;5031065;28;20068;-60
2022/06/26 03:58:33;;;;;;;20.08;7.60;;;;;;;;;;5031106;28;20044;-59
2022/06/26 04:01:00;;;;;;;21.80;7.60;;;;;;;;;;5032019;28;20426;-60
2022/06/26 04:03:27;;;;;;;18.52;6.47;;;;;;;;;;5032016;28;20029;-60
2022/06/26 04:05:54;;;;;;;20.45;7.75;;;;;;;;;;5031073;28;20032;-60
2022/06/26 04:08:21;;;;;;;18.50;6.75;;;;;;;;;;5031834;28;20079;-60
2022/06/26 04:10:48;;;;;;;22.23;7.15;;;;;;;;;;5031375;28;20035;-60
2022/06/26 04:13:15;;;;;;;16.15;6.85;;;;;;;;;;5031133;28;20040;-60
2022/06/26 04:15:42;;;;;;;18.30;6.75;;;;;;;;;;5031663;28;20033;-60
2022/06/26 04:18:09;;;;;;;21.17;7.00;;;;;;;;;;5030884;28;20017;-60
2022/06/26 04:20:36;;;;;;;19.05;6.72;;;;;;;;;;5031945;28;20372;-60
2022/06/26 04:23:05;;;;;;;15.75;6.32;;;;;;;;;;5030743;28;20603;-60
2022/06/26 04:25:32;;;;;;;16.58;6.10;;;;;;;;;;5031714;28;20030;-59
2022/06/26 04:27:59;;;;;;;12.98;5.70;;;;;;;;;;5031505;28;20075;-60
2022/06/26 04:30:27;;;;;;;15.27;5.70;;;;;;;;;;5030230;28;20064;-59
2022/06/26 04:32:54;;;;;;;12.35;5.60;;;;;;;;;;5030883;28;20033;-60
2022/06/26 04:35:21;;;;;;;13.32;5.50;;;;;;;;;;5031059;28;20063;-60
2022/06/26 04:37:48;;;;;;;16.33;5.43;;;;;;;;;;5031370;28;20025;-60
2022/06/26 04:40:15;;;;;;;16.25;5.85;;;;;;;;;;5031124;28;20030;-61
2022/06/26 04:42:42;;;;;;;14.48;5.07;;;;;;;;;;5031000;28;20391;-60
2022/06/26 04:45:10;;;;;;;13.50;5.05;;;;;;;;;;5031268;28;20030;-60
2022/06/26 04:47:38;;;;;;;15.57;5.78;;;;;;;;;;5030699;28;20028;-60
2022/06/26 04:50:05;;;;;;;12.10;4.95;;;;;;;;;;5030865;28;20114;-60
2022/06/26 04:52:32;;;;;;;12.23;4.85;;;;;;;;;;5034947;28;20030;-60
2022/06/26 04:54:59;;;;;;;12.65;4.60;;;;;;;;;;5034632;28;20116;-60
2022/06/26 04:57:26;;;;;;;11.75;4.30;;;;;;;;;;5034291;28;20490;-59
2022/06/26 04:59:53;;;;;;;11.02;4.70;;;;;;;;;;5034914;28;20092;-59
2022/06/26 05:02:20;;;;;;;13.25;4.80;;;;;;;;;;5034747;28;20606;-59
2022/06/26 05:04:47;;;;;;;12.52;4.47;;;;;;;;;;5034360;28;20120;-59
2022/06/26 05:07:14;;;;;;;12.18;4.47;;;;;;;;;;5034990;28;20093;-60
2022/06/26 05:09:41;;;;;;;12.30;4.28;;;;;;;;;;5034482;28;20046;-60
2022/06/26 05:12:08;;;;;;;11.10;4.50;;;;;;;;;;5034710;28;20049;-60
2022/06/26 05:14:35;;;;;;;9.73;3.85;;;;;;;;;;5032820;28;20037;-60
2022/06/26 05:17:02;;;;;;;10.10;4.18;;;;;;;;;;5034978;28;20078;-60
2022/06/26 05:19:29;;;;;;;10.25;3.85;;;;;;;;;;5034303;28;20022;-60
2022/06/26 05:21:57;;;;;;;9.32;3.88;;;;;;;;;;5034436;28;20036;-60
2022/06/26 05:24:23;;;;;;;10.02;4.13;;;;;;;;;;5034098;28;20029;-60
2022/06/26 05:26:50;;;;;;;8.93;3.80;;;;;;;;;;5034091;28;20502;-60
2022/06/26 05:29:17;;;;;;;9.43;3.45;;;;;;;;;;5034432;28;20487;-60
2022/06/26 05:31:44;;;;;;;10.38;4.00;;;;;;;;;;5034293;28;20029;-60
2022/06/26 05:34:11;;;;;;;7.28;3.22;;;;;;;;;;5034195;28;20398;-60
2022/06/26 05:36:38;;;;;;;10.57;3.95;;;;;;;;;;5034170;28;20036;-60
2022/06/26 05:39:05;;;;;;;12.05;3.47;;;;;;;;;;5033933;28;20029;-59
2022/06/26 05:41:32;;;;;;;7.50;3.50;;;;;;;;;;5034491;28;20029;-60
2022/06/26 05:43:59;;;;;;;6.90;3.15;;;;;;;;;;5034444;28;20083;-61
2022/06/26 05:46:26;;;;;;;7.90;3.53;;;;;;;;;;5033475;28;20032;-60
2022/06/26 05:48:53;;;;;;;8.77;3.22;;;;;;;;;;5033501;28;20067;-59
2022/06/26 05:51:20;;;;;;;7.30;3.47;;;;;;;;;;5034290;28;20060;-60
2022/06/26 05:53:47;;;;;;;8.38;3.30;;;;;;;;;;5033554;28;20092;-60
2022/06/26 05:56:15;;;;;;;8.45;3.42;;;;;;;;;;5033296;28;20072;-60
2022/06/26 05:58:41;;;;;;;8.50;3.15;;;;;;;;;;5033870;28;20049;-60
2022/06/26 06:01:08;;;;;;;7.47;2.95;;;;;;;;;;5032549;28;20407;-60
2022/06/26 06:03:35;;;;;;;6.75;3.15;;;;;;;;;;5033346;28;20041;-60
2022/06/26 06:06:02;;;;;;;7.78;3.30;;;;;;;;;;5033432;28;20033;-60
2022/06/26 06:08:29;;;;;;;6.90;2.97;;;;;;;;;;5033054;28;20038;-60
2022/06/26 06:10:56;;;;;;;6.60;2.88;;;;;;;;;;5033482;28;20045;-60
2022/06/26 06:13:23;;;;;;;5.82;2.58;;;;;;;;;;5033255;28;20537;-60
2022/06/26 06:15:50;;;;;;;7.35;3.10;;;;;;;;;;5032572;28;20041;-60
2022/06/26 06:18:17;;;;;;;9.20;2.88;;;;;;;;;;5032978;28;20112;-60
2022/06/26 06:20:45;;;;;;;5.82;2.63;;;;;;;;;;5033663;28;20025;-60
2022/06/26 06:23:12;;;;;;;6.32;2.95;;;;;;;;;;5033282;28;20060;-60
2022/06/26 06:25:39;;;;;;;5.53;2.45;;;;;;;;;;5033780;28;20022;-60
2022/06/26 06:28:06;;;;;;;9.30;2.47;;;;;;;;;;5032737;28;20540;-59
2022/06/26 06:30:33;;;;;;;6.22;2.20;;;;;;;;;;5033062;28;20026;-60
2022/06/26 06:33:00;;;;;;;5.63;2.67;;;;;;;;;;5033392;28;20376;-60
2022/06/26 06:35:27;;;;;;;7.18;2.75;;;;;;;;;;5032668;28;20025;-60
2022/06/26 06:37:54;;;;;;;5.43;2.55;;;;;;;;;;5032757;28;20513;-59
2022/06/26 06:40:21;;;;;;;4.10;2.05;;;;;;;;;;5033024;28;20064;-60
2022/06/26 06:42:48;;;;;;;5.10;2.58;;;;;;;;;;5033113;28;20025;-60
2022/06/26 06:45:15;;;;;;;3.90;2.10;;;;;;;;;;5032519;28;20052;-60
2022/06/26 06:47:42;;;;;;;5.68;2.35;;;;;;;;;;5019197;28;20452;-59
2022/06/26 06:50:09;;;;;;;5.95;2.40;;;;;;;;;;5011136;28;20042;-61
2022/06/26 06:52:36;;;;;;;4.40;2.20;;;;;;;;;;5011912;28;20080;-60
2022/06/26 06:55:04;;;;;;;4.88;2.13;;;;;;;;;;5012940;28;20046;-60
2022/06/26 06:57:32;;;;;;;5.13;2.38;;;;;;;;;;5012312;28;20029;-60
2022/06/26 06:59:58;;;;;;;6.53;2.10;;;;;;;;;;5012534;28;20059;-61
2022/06/26 07:02:26;;;;;;;5.35;2.17;;;;;;;;;;5012569;28;20052;-60
2022/06/26 07:04:53;;;;;;;5.78;2.17;;;;;;;;;;5026601;28;20040;-60
2022/06/26 07:07:20;;;;;;;4.97;2.13;;;;;;;;;;5031646;28;20033;-61
2022/06/26 07:09:47;;;;;;;4.07;2.10;;;;;;;;;;5031838;28;20037;-60
2022/06/26 07:12:14;;;;;;;4.28;1.95;;;;;;;;;;5031984;28;20072;-60
2022/06/26 07:14:41;;;;;;;5.22;2.55;;;;;;;;;;5031929;28;20029;-60
2022/06/26 07:17:08;;;;;;;3.50;1.75;;;;;;;;;;5031197;28;20065;-60
2022/06/26 07:19:35;;;;;;;3.40;2.17;;;;;;;;;;5031870;28;20091;-60
2022/06/26 07:22:02;;;;;;;4.28;1.95;;;;;;;;;;5032051;28;20055;-60
2022/06/26 07:24:29;;;;;;;5.03;2.30;;;;;;;;;;5031826;28;20427;-60
2022/06/26 07:26:56;;;;;;;4.05;1.83;;;;;;;;;;5030999;28;20518;-61
2022/06/26 07:29:24;;;;;;;3.92;1.90;;;;;;;;;;5032234;28;20061;-60
2022/06/26 07:31:50;;;;;;;5.40;2.08;;;;;;;;;;5031448;28;20036;-61
2022/06/26 07:34:18;;;;;;;3.60;1.77;;;;;;;;;;5031956;28;20418;-59
2022/06/26 07:36:46;;;;;;;3.05;1.73;;;;;;;;;;5031565;28;20652;-60
2022/06/26 07:39:14;;;;;;;5.65;1.92;;;;;;;;;;5031443;28;20449;-60
2022/06/26 07:41:41;;;;;;;3.03;1.75;;;;;;;;;;5034930;28;20044;-61
2022/06/26 07:44:09;;;;;;;5.75;2.10;;;;;;;;;;5051783;28;20053;-61
2022/06/26 07:46:36;;;;;;;2.97;1.73;;;;;;;;;;5051129;28;20033;-60
2022/06/26 07:49:05;;;;;;;6.63;2.30;;;;;;;;;;5051066;28;20549;-60
2022/06/26 07:51:32;;;;;;;4.85;1.80;;;;;;;;;;5038967;28;20033;-60
2022/06/26 07:53:59;;;;;;;5.15;2.28;;;;;;;;;;5011441;28;20022;-60
2022/06/26 07:56:26;;;;;;;3.97;1.83;;;;;;;;;;5011832;28;20037;-60
2022/06/26 07:58:54;;;;;;;2.97;1.40;;;;;;;;;;5011650;28;20025;-60
2022/06/26 08:01:21;;;;;;;7.03;1.77;;;;;;;;;;5012116;28;20537;-60
2022/06/26 08:03:48;;;;;;;6.55;1.73;;;;;;;;;;5011414;28;20484;-60
2022/06/26 08:06:15;;;;;;;8.98;1.73;;;;;;;;;;5011451;28;20492;-60
2022/06/26 08:08:42;;;;;;;5.35;1.63;;;;;;;;;;5018820;28;20044;-60
2022/06/26 08:11:10;;;;;;;2.65;1.30;;;;;;;;;;5030944;28;20104;-60
2022/06/26 08:13:37;;;;;;;4.47;1.60;;;;;;;;;;5030874;28;20080;-60
2022/06/26 08:16:04;;;;;;;3.65;1.50;;;;;;;;;;5031302;28;20025;-61
2022/06/26 08:18:31;;;;;;;1.88;1.25;;;;;;;;;;5031688;28;20111;-60
2022/06/26 08:22:00;;;;;;;3.67;1.30;;;;;;;;;;5030885;28;20029;-60
2022/06/26 08:23:44;;;;;;;3.85;1.27;;;;;;;;;;5031667;28;20071;-60
2022/06/26 08:26:11;;;;;;;4.35;1.60;;;;;;;;;;5034242;28;20037;-60
2022/06/26 08:28:38;;;;;;;2.78;1.40;;;;;;;;;;5035477;28;20112;-60
2022/06/26 08:31:05;;;;;;;4.35;1.63;;;;;;;;;;5035134;28;20030;-60
2022/06/26 08:33:32;;;;;;;2.53;1.38;;;;;;;;;;5035154;28;20025;-60
2022/06/26 08:35:59;;;;;;;3.30;1.50;;;;;;;;;;5035052;28;20037;-60
2022/06/26 08:38:26;;;;;;;3.25;1.60;;;;;;;;;;5035260;28;20041;-60
2022/06/26 08:40:53;;;;;;;3.00;1.58;;;;;;;;;;5034693;28;20030;-60
2022/06/26 08:43:22;;;;;;;3.00;1.48;;;;;;;;;;5034807;28;20025;-60
2022/06/26 08:45:54;;;;;;;3.42;1.30;;;;;;;;;;5035212;28;20035;-61
2022/06/26 08:48:22;;;;;;;2.90;1.30;;;;;;;;;;5034690;28;20049;-60
2022/06/26 08:50:49;;;;;;;2.22;1.10;;;;;;;;;;5034084;28;20033;-59
2022/06/26 08:53:16;;;;;;;1.98;1.30;;;;;;;;;;5034916;28;20029;-60
2022/06/26 08:55:44;;;;;;;2.35;1.17;;;;;;;;;;5035198;28;20034;-60
2022/06/26 08:58:11;;;;;;;3.08;1.23;;;;;;;;;;5034508;28;20040;-60
2022/06/26 09:00:38;;;;;;;2.50;1.10;;;;;;;;;;5034916;28;20060;-60
2022/06/26 09:03:05;;;;;;;4.13;1.45;;;;;;;;;;5033664;28;20033;-60
2022/06/26 09:05:31;;;;;;;1.85;1.00;;;;;;;;;;5035074;28;20092;-60
2022/06/26 09:07:59;;;;;;;3.17;1.25;;;;;;;;;;5034179;28;20523;-60
2022/06/26 09:10:37;;;;;;;3.03;1.30;;;;;;;;;;5034513;28;20071;-60
2022/06/26 09:13:06;;;;;;;2.20;1.20;;;;;;;;;;5034748;28;20124;-60
2022/06/26 09:15:33;;;;;;;2.25;0.90;;;;;;;;;;5034836;28;20116;-60
2022/06/26 09:18:01;;;;;;;2.28;1.13;;;;;;;;;;5033826;28;20119;-60
2022/06/26 09:20:30;;;;;;;2.92;1.10;;;;;;;;;;5033990;28;20033;-60
2022/06/26 09:22:57;;;;;;;1.60;0.93;;;;;;;;;;5034647;28;20030;-60
2022/06/26 09:25:43;;;;;;;2.85;1.10;;;;;;;;;;5033412;28;20049;-60
2022/06/26 09:28:21;;;;;;;2.53;1.08;;;;;;;;;;5032534;28;20451;-60
2022/06/26 09:30:52;;;;;;;2.97;1.10;;;;;;;;;;5034640;28;20057;-61
2022/06/26 09:33:19;;;;;;;2.83;0.90;;;;;;;;;;5034044;28;20383;-60
2022/06/26 09:35:46;;;;;;;1.88;1.10;;;;;;;;;;5034180;28;20452;-59
2022/06/26 09:38:22;;;;;;;2.67;1.02;;;;;;;;;;5034205;28;20525;-59
2022/06/26 09:40:55;;;;;;;1.30;0.90;;;;;;;;;;5033974;28;20040;-61
2022/06/26 09:43:28;;;;;;;1.67;0.90;;;;;;;;;;5032645;28;20458;-60
2022/06/26 09:45:55;;;;;;;3.45;1.30;;;;;;;;;;5033924;28;20717;-60
2022/06/26 09:48:24;;;;;;;2.28;1.02;;;;;;;;;;5034063;28;20075;-60
2022/06/26 09:50:51;;;;;;;2.25;1.00;;;;;;;;;;5033831;28;20124;-60
2022/06/26 09:53:19;;;;;;;3.13;1.17;;;;;;;;;;5034145;28;20037;-60
2022/06/26 09:55:47;;;;;;;2.97;1.20;;;;;;;;;;5033521;28;20180;-60
2022/06/26 09:58:15;;;;;;;3.17;0.90;;;;;;;;;;5034118;28;20087;-60
2022/06/26 10:00:42;;;;;;;2.03;1.00;;;;;;;;;;5033745;28;20033;-60
2022/06/26 10:08:44;;;;;;;2.80;1.13;;;;;;;;;;5034271;28;20103;-60
2022/06/26 10:11:12;;;;;;;2.45;0.90;;;;;;;;;;5033015;28;20037;-59
2022/06/26 10:13:40;;;;;;;1.60;0.80;;;;;;;;;;5034132;28;20068;-60
2022/06/26 10:16:25;;;;;;;1.85;0.90;;;;;;;;;;5032995;28;20041;-60
2022/06/26 10:19:05;;;;;;;2.92;1.00;;;;;;;;;;5033505;28;20029;-61
2022/06/26 10:21:37;;;;;;;1.88;1.00;;;;;;;;;;5033436;28;20095;-60
2022/06/26 10:24:05;;;;;;;2.55;0.85;;;;;;;;;;5032732;28;20034;-60
2022/06/26 10:26:32;;;;;;;1.50;0.90;;;;;;;;;;5033585;28;20029;-60
2022/06/26 10:29:05;;;;;;;3.00;0.80;;;;;;;;;;5033066;28;20427;-60
2022/06/26 10:31:47;;;;;;;1.75;0.90;;;;;;;;;;5033547;28;20033;-60
2022/06/26 10:34:21;;;;;;;1.38;0.70;;;;;;;;;;5033516;28;20041;-60
2022/06/26 10:37:01;;;;;;;2.80;0.90;;;;;;;;;;5032780;28;20026;-60
2022/06/26 10:39:45;;;;;;;3.78;0.90;;;;;;;;;;5033521;28;20067;-60
2022/06/26 10:45:04;;;;;;;2.05;0.88;;;;;;;;;;5032614;28;20069;-60
2022/06/26 10:47:41;;;;;;;1.92;1.05;;;;;;;;;;5032791;28;20056;-59
2022/06/26 10:50:22;;;;;;;1.52;0.90;;;;;;;;;;5032758;28;20468;-60
2022/06/26 10:52:49;;;;;;;1.80;0.90;;;;;;;;;;5032356;28;20491;-61
2022/06/26 10:55:16;;;;;;;3.15;0.93;;;;;;;;;;5033343;28;20025;-60
2022/06/26 10:57:43;;;;;;;1.40;0.90;;;;;;;;;;5032272;28;20029;-61
2022/06/26 11:00:12;;;;;;;1.95;0.90;;;;;;;;;;5032651;28;20056;-60
2022/06/26 11:02:44;;;;;;;1.90;0.90;;;;;;;;;;5032481;28;20483;-60
2022/06/26 11:05:11;;;;;;;1.55;0.73;;;;;;;;;;5031790;28;20050;-60
2022/06/26 11:07:46;;;;;;;2.95;0.90;;;;;;;;;;5032824;28;20041;-60
2022/06/26 11:10:22;;;;;;;1.73;0.85;;;;;;;;;;5032048;28;20040;-60
2022/06/26 11:12:51;;;;;;;1.88;0.82;;;;;;;;;;5032848;28;20568;-59
2022/06/26 11:15:26;;;;;;;1.50;0.90;;;;;;;;;;5032059;28;20037;-60
2022/06/26 11:18:04;;;;;;;2.40;0.93;;;;;;;;;;5032008;28;20044;-60
2022/06/26 11:20:47;;;;;;;3.45;0.70;;;;;;;;;;5032586;28;20084;-60
2022/06/26 11:23:30;;;;;;;3.20;0.98;;;;;;;;;;5032225;28;20025;-60
2022/06/26 11:25:58;;;;;;;0.93;0.70;;;;;;;;;;5032557;28;20029;-59
2022/06/26 11:28:55;;;;;;;2.30;0.80;;;;;;;;;;5031005;28;20173;-60
2022/06/26 11:31:23;;;;;;;2.17;0.77;;;;;;;;;;5023826;28;20037;-60
2022/06/26 11:33:50;;;;;;;1.38;0.70;;;;;;;;;;5031518;28;20064;-60
2022/06/26 11:36:18;;;;;;;3.72;1.08;;;;;;;;;;5026265;28;20022;-60
2022/06/26 11:38:53;;;;;;;1.80;0.93;;;;;;;;;;5029028;28;20407;-60
2022/06/26 11:41:20;;;;;;;0.80;0.50;;;;;;;;;;5021962;28;20029;-61
2022/06/26 11:43:52;;;;;;;2.65;0.77;;;;;;;;;;5020991;28;20030;-60
2022/06/26 11:46:20;;;;;;;1.48;0.70;;;;;;;;;;5021698;28;20102;-61
2022/06/26 11:48:49;;;;;;;4.05;0.70;;;;;;;;;;5024510;28;20095;-60
2022/06/26 11:51:18;;;;;;;4.25;0.73;;;;;;;;;;5029865;28;20028;-60
2022/06/26 11:53:45;;;;;;;1.67;0.70;;;;;;;;;;5009349;28;20488;-59
2022/06/26 11:56:18;;;;;;;1.65;0.90;;;;;;;;;;5016142;28;20022;-59
2022/06/26 11:58:46;;;;;;;2.28;0.90;;;;;;;;;;5027785;28;20037;-61
2022/06/26 12:01:15;;;;;;;4.20;1.20;;;;;;;;;;5010741;28;20673;-60
2022/06/26 12:03:45;;;;;;;3.70;1.48;;;;;;;;;;5011377;28;20034;-60
2022/06/26 12:06:11;;;;;;;4.10;1.40;;;;;;;;;;5011352;28;20041;-60
2022/06/26 12:08:38;;;;;;;2.00;1.15;;;;;;;;;;5011054;28;20030;-60
2022/06/26 12:11:05;;;;;;;1.70;1.08;;;;;;;;;;5015119;28;20042;-61
2022/06/26 12:13:35;;;;;;;2.05;1.30;;;;;;;;;;5029911;28;20050;-60
2022/06/26 12:16:12;;;;;;;1.98;1.25;;;;;;;;;;5030143;28;20029;-60
2022/06/26 12:18:39;;;;;;;2.65;1.20;;;;;;;;;;5030688;28;20036;-60
2022/06/26 12:21:16;;;;;;;4.00;1.30;;;;;;;;;;5030512;28;20030;-60
2022/06/26 12:23:46;;;;;;;4.35;1.38;;;;;;;;;;5030581;28;20033;-60
2022/06/26 12:26:14;;;;;;;2.88;1.30;;;;;;;;;;5012726;28;20132;-60
2022/06/26 12:29:01;;;;;;;2.10;1.33;;;;;;;;;;5028623;28;20060;-61
2022/06/26 12:31:28;;;;;;;4.03;1.50;;;;;;;;;;5029821;28;20029;-60
2022/06/26 12:33:55;;;;;;;7.80;1.60;;;;;;;;;;5030028;28;20049;-60
2022/06/26 12:36:22;;;;;;;5.25;1.73;;;;;;;;;;5030497;28;20442;-59
2022/06/26 12:38:49;;;;;;;10.82;1.70;;;;;;;;;;5030630;28;20518;-61
2022/06/26 12:41:16;;;;;;;14.70;2.08;;;;;;;;;;5030061;28;20040;-60
2022/06/26 12:43:47;;;;;;;12.02;2.40;;;;;;;;;;5029888;28;20029;-60
2022/06/26 12:46:15;;;;;;;6.97;1.77;;;;;;;;;;5017816;28;20041;-60
2022/06/26 12:49:07;;;;;;;10.90;2.33;;;;;;;;;;5012743;28;20112;-60
2022/06/26 12:51:35;;;;;;;9.68;1.88;;;;;;;;;;5011098;28;20049;-60
2022/06/26 12:54:02;;;;;;;5.25;1.75;;;;;;;;;;5010843;28;20026;-60
2022/06/26 12:56:29;;;;;;;7.38;1.63;;;;;;;;;;5010860;28;20026;-59
2022/06/26 12:58:56;;;;;;;6.82;2.15;;;;;;;;;;5009181;28;20030;-60
2022/06/26 13:01:23;;;;;;;7.90;1.80;;;;;;;;;;5010386;28;20066;-60
2022/06/26 13:03:50;;;;;;;9.57;1.80;;;;;;;;;;5010944;28;20041;-59
2022/06/26 13:06:17;;;;;;;9.35;1.92;;;;;;;;;;5010944;28;20481;-61
2022/06/26 13:08:44;;;;;;;5.63;1.60;;;;;;;;;;5010473;28;20038;-60
2022/06/26 13:11:23;;;;;;;5.40;1.40;;;;;;;;;;5009045;28;20093;-59
2022/06/26 13:13:50;;;;;;;6.40;1.70;;;;;;;;;;5014484;28;20037;-60
2022/06/26 13:16:17;;;;;;;5.85;1.50;;;;;;;;;;5023594;28;20040;-59
2022/06/26 13:18:44;;;;;;;4.63;1.27;;;;;;;;;;5021705;28;20030;-60
2022/06/26 13:21:11;;;;;;;4.45;1.65;;;;;;;;;;5023813;28;20044;-60
2022/06/26 13:23:38;;;;;;;2.75;1.70;;;;;;;;;;5023316;28;20037;-59
2022/06/26 13:26:05;;;;;;;7.72;1.38;;;;;;;;;;5021101;28;20405;-60
2022/06/26 13:28:32;;;;;;;4.20;1.52;;;;;;;;;;5005096;28;20144;-60
2022/06/26 13:30:59;;;;;;;8.05;1.60;;;;;;;;;;5022813;28;20400;-60
2022/06/26 13:33:26;;;;;;;5.60;1.27;;;;;;;;;;5021303;28;20380;-60
2022/06/26 13:35:53;;;;;;;6.97;1.30;;;;;;;;;;5022681;28;20025;-60
2022/06/26 13:38:20;;;;;;;4.65;1.40;;;;;;;;;;5022532;28;20112;-60
2022/06/26 13:40:47;;;;;;;6.45;1.50;;;;;;;;;;5021526;28;20030;-60
2022/06/26 13:43:14;;;;;;;2.33;1.27;;;;;;;;;;5024371;28;20026;-61
2022/06/26 13:45:41;;;;;;;7.20;1.60;;;;;;;;;;5023873;28;20042;-61
2022/06/26 13:48:08;;;;;;;3.42;1.50;;;;;;;;;;5033395;28;20107;-60
2022/06/26 13:50:35;;;;;;;3.47;1.40;;;;;;;;;;5014925;28;20040;-60
2022/06/26 13:53:02;;;;;;;4.93;1.40;;;;;;;;;;5032843;28;20060;-60
2022/06/26 13:55:29;;;;;;;4.57;1.60;;;;;;;;;;5033224;28;20029;-60
2022/06/26 13:57:57;;;;;;;7.80;1.27;;;;;;;;;;5032338;28;20112;-61
2022/06/26 14:00:24;;;;;;;5.57;1.45;;;;;;;;;;5015227;28;20784;-61
2022/06/26 14:02:51;;;;;;;4.00;1.50;;;;;;;;;;5033098;28;20037;-61
2022/06/26 14:05:18;;;;;;;5.07;1.42;;;;;;;;;;5032937;28;20037;-60
2022/06/26 14:07:45;;;;;;;5.88;1.58;;;;;;;;;;5014374;28;20394;-61
2022/06/26 14:10:12;;;;;;;7.50;1.50;;;;;;;;;;5033529;28;20065;-61
2022/06/26 14:12:39;;;;;;;6.35;1.35;;;;;;;;;;5032633;28;20077;-60
2022/06/26 14:15:06;;;;;;;6.60;1.55;;;;;;;;;;5014557;28;20056;-61
2022/06/26 14:17:33;;;;;;;10.68;1.95;;;;;;;;;;5032311;28;20040;-61
2022/06/26 14:20:00;;;;;;;5.30;1.35;;;;;;;;;;5027000;28;20057;-61
2022/06/26 14:27:58;;;;;;;7.43;1.50;;;;;;;;;;5030334;28;20414;-60
2022/06/26 14:30:25;;;;;;;4.00;1.25;;;;;;;;;;5031233;28;20487;-60
2022/06/26 14:32:52;;;;;;;4.50;1.25;;;;;;;;;;5030103;28;20025;-62
2022/06/26 14:35:19;;;;;;;7.97;1.77;;;;;;;;;;5031265;28;20052;-61
2022/06/26 14:37:46;;;;;;;4.28;1.52;;;;;;;;;;5029080;28;20056;-61
2022/06/26 14:40:13;;;;;;;4.82;1.55;;;;;;;;;;5028715;28;20064;-62
2022/06/26 14:42:43;;;;;;;8.30;1.77;;;;;;;;;;5031581;28;20112;-59
2022/06/26 14:45:15;;;;;;;12.50;2.22;;;;;;;;;;5027984;28;20033;-61
2022/06/26 14:47:42;;;;;;;9.13;1.70;;;;;;;;;;5030850;28;20064;-61
2022/06/26 14:50:12;;;;;;;18.42;2.30;;;;;;;;;;5031020;28;20120;-62
2022/06/26 14:52:40;;;;;;;12.75;2.13;;;;;;;;;;5019150;28;20037;-61
2022/06/26 14:55:08;;;;;;;13.75;2.60;;;;;;;;;;5024955;28;20033;-61
2022/06/26 14:57:35;;;;;;;17.38;2.38;;;;;;;;;;5029672;28;20068;-58
2022/06/26 15:00:02;;;;;;;30.08;3.42;;;;;;;;;;5026359;28;20045;-64
2022/06/26 15:02:28;;;;;;;30.98;3.13;;;;;;;;;;5029369;28;20112;-62